createdAt,value
2022-08-12T00:01:11.919Z,30.70
2022-08-12T00:03:32.377Z,30.70
2022-08-12T00:06:01.795Z,30.70
2022-08-12T00:08:30.948Z,30.70
2022-08-12T00:10:58.142Z,30.70
2022-08-12T00:13:20.346Z,30.70
2022-08-12T00:15:40.991Z,30.70
2022-08-12T00:18:01.603Z,30.70
2022-08-12T00:20:23.015Z,30.70
2022-08-12T00:22:43.635Z,30.70
2022-08-12T00:25:04.788Z,30.70
2022-08-12T00:27:43.292Z,30.70
2022-08-12T00:30:04.701Z,30.70
2022-08-12T00:32:35.144Z,30.70
2022-08-12T00:34:56.436Z,30.70
2022-08-12T00:37:16.881Z,30.70
2022-08-12T00:39:38.343Z,30.70
2022-08-12T00:41:59.561Z,30.70
2022-08-12T00:44:03.376Z,30.70
2022-08-12T00:46:24.402Z,30.70
2022-08-12T00:48:27.399Z,30.70
2022-08-12T00:50:30.532Z,30.70
2022-08-12T00:52:34.492Z,30.70
2022-08-12T00:54:43.245Z,30.60
2022-08-12T00:56:46.212Z,30.60
2022-08-12T00:58:50.823Z,30.60
2022-08-12T01:00:53.245Z,30.70
2022-08-12T01:02:58.547Z,30.60
2022-08-12T01:05:26.263Z,30.60
2022-08-12T01:07:48.016Z,30.60
2022-08-12T01:10:09.495Z,30.60
2022-08-12T01:12:12.924Z,30.60
2022-08-12T01:14:14.904Z,30.60
2022-08-12T01:16:22.364Z,30.60
2022-08-12T01:18:27.929Z,30.60
2022-08-12T01:20:43.469Z,30.60
2022-08-12T01:23:12.437Z,30.60
2022-08-12T01:25:21.142Z,30.60
2022-08-12T01:27:23.561Z,30.60
2022-08-12T01:29:32.480Z,30.60
2022-08-12T01:31:37.617Z,30.60
2022-08-12T01:34:03.750Z,30.60
2022-08-12T01:36:09.807Z,30.60
2022-08-12T01:38:16.020Z,30.60
2022-08-12T01:40:33.785Z,30.00
2022-08-12T01:42:52.245Z,29.50
2022-08-12T01:44:55.598Z,29.00
2022-08-12T01:47:20.604Z,28.50
2022-08-12T01:49:43.387Z,28.40
2022-08-12T01:52:15.962Z,28.20
2022-08-12T01:54:18.928Z,28.00
2022-08-12T01:56:25.641Z,27.80
2022-08-12T01:58:52.060Z,27.60
2022-08-12T02:01:01.220Z,27.50
2022-08-12T02:03:12.073Z,27.50
2022-08-12T02:05:55.149Z,27.70
2022-08-12T02:08:45.608Z,27.80
2022-08-12T02:11:19.796Z,27.90
2022-08-12T02:14:05.106Z,27.90
2022-08-12T02:16:23.843Z,27.80
2022-08-12T02:18:49.292Z,27.90
2022-08-12T02:21:00.281Z,28.00
2022-08-12T02:23:04.164Z,27.90
2022-08-12T02:25:08.795Z,27.90
2022-08-12T02:27:13.396Z,28.00
2022-08-12T02:29:16.153Z,27.90
2022-08-12T02:31:20.108Z,27.80
2022-08-12T02:33:22.547Z,27.80
2022-08-12T02:35:28.379Z,27.80
2022-08-12T02:37:35.900Z,27.80
2022-08-12T02:39:44.448Z,27.80
2022-08-12T02:41:47.211Z,27.80
2022-08-12T02:43:53.612Z,27.80
2022-08-12T02:46:04.563Z,27.90
2022-08-12T02:48:08.189Z,27.70
2022-08-12T02:50:10.815Z,27.70
2022-08-12T02:52:15.681Z,27.70
2022-08-12T02:54:17.613Z,27.60
2022-08-12T02:56:19.502Z,27.60
2022-08-12T02:58:33.028Z,27.50
2022-08-12T03:00:37.728Z,27.60
2022-08-12T03:02:43.993Z,27.70
2022-08-12T03:04:56.614Z,27.60
2022-08-12T03:07:09.479Z,27.40
2022-08-12T03:09:16.833Z,27.40
2022-08-12T03:11:44.661Z,27.50
2022-08-12T03:13:59.064Z,27.30
2022-08-12T03:16:01.388Z,27.30
2022-08-12T03:18:25.746Z,27.10
2022-08-12T03:20:34.210Z,27.20
2022-08-12T03:22:40.774Z,27.20
2022-08-12T03:24:45.447Z,27.40
2022-08-12T03:26:49.074Z,27.20
2022-08-12T03:28:54.021Z,27.30
2022-08-12T03:31:02.117Z,27.20
2022-08-12T03:33:06.009Z,27.20
2022-08-12T03:35:36.963Z,27.20
2022-08-12T03:37:36.660Z,27.20
2022-08-12T03:39:39.407Z,27.10
2022-08-12T03:41:52.575Z,27.20
2022-08-12T03:44:25.898Z,27.00
2022-08-12T03:46:57.726Z,27.00
2022-08-12T03:49:18.260Z,27.00
2022-08-12T03:51:39.045Z,26.80
2022-08-12T03:53:59.905Z,26.70
2022-08-12T03:56:20.084Z,26.70
2022-08-12T03:58:40.966Z,26.70
2022-08-12T04:00:42.846Z,26.70
2022-08-12T04:02:45.703Z,26.80
2022-08-12T04:04:49.431Z,26.90
2022-08-12T04:06:51.839Z,26.70
2022-08-12T04:08:58.904Z,26.70
2022-08-12T04:11:19.192Z,26.70
2022-08-12T04:13:21.689Z,26.60
2022-08-12T04:15:28.948Z,26.70
2022-08-12T04:17:31.891Z,26.60
2022-08-12T04:19:34.200Z,26.60
2022-08-12T04:21:37.968Z,26.60
2022-08-12T04:24:01.249Z,26.70
2022-08-12T04:26:02.936Z,26.50
2022-08-12T04:28:11.337Z,26.50
2022-08-12T04:30:30.251Z,26.50
2022-08-12T04:32:39.608Z,26.50
2022-08-12T04:34:44.509Z,26.40
2022-08-12T04:36:46.264Z,26.50
2022-08-12T04:38:48.213Z,26.60
2022-08-12T04:40:50.097Z,26.50
2022-08-12T04:42:52.109Z,26.30
2022-08-12T04:44:53.885Z,26.00
2022-08-12T04:46:55.931Z,25.80
2022-08-12T04:48:57.878Z,25.60
2022-08-12T04:51:01.819Z,25.50
2022-08-12T04:53:08.710Z,25.30
2022-08-12T04:55:12.347Z,25.10
2022-08-12T04:57:14.082Z,25.10
2022-08-12T04:59:15.867Z,25.00
2022-08-12T05:01:18.348Z,24.90
2022-08-12T05:03:20.257Z,24.70
2022-08-12T05:05:23.546Z,24.70
2022-08-12T05:07:27.311Z,24.60
2022-08-12T05:09:55.345Z,24.50
2022-08-12T05:11:54.127Z,24.60
2022-08-12T05:14:00.478Z,24.50
2022-08-12T05:16:04.009Z,24.50
2022-08-12T05:18:19.509Z,24.50
2022-08-12T05:20:22.612Z,24.50
2022-08-12T05:22:26.106Z,24.50
2022-08-12T05:24:27.889Z,24.40
2022-08-12T05:26:29.583Z,24.40
2022-08-12T05:28:31.361Z,24.40
2022-08-12T05:30:36.032Z,24.30
2022-08-12T05:32:37.829Z,24.30
2022-08-12T05:34:39.510Z,24.30
2022-08-12T05:36:43.954Z,24.30
2022-08-12T05:38:58.950Z,24.40
2022-08-12T05:41:01.874Z,24.40
2022-08-12T05:43:03.644Z,24.50
2022-08-12T05:45:06.361Z,24.50
2022-08-12T05:47:08.072Z,24.50
2022-08-12T05:49:09.972Z,24.50
2022-08-12T05:51:11.852Z,24.50
2022-08-12T05:53:13.796Z,24.40
2022-08-12T05:55:15.755Z,24.50
2022-08-12T05:57:17.852Z,24.50
2022-08-12T05:59:21.884Z,24.70
2022-08-12T06:02:09.836Z,24.50
2022-08-12T06:03:47.210Z,24.50
2022-08-12T06:05:55.688Z,24.70
2022-08-12T06:08:02.076Z,24.60
2022-08-12T06:10:05.032Z,24.70
2022-08-12T06:12:06.897Z,24.70
2022-08-12T06:14:12.113Z,24.70
2022-08-12T06:16:20.020Z,24.70
2022-08-12T06:18:22.886Z,24.70
2022-08-12T06:20:33.504Z,24.70
2022-08-12T06:22:35.434Z,24.80
2022-08-12T06:24:37.224Z,24.80
2022-08-12T06:26:39.008Z,24.80
2022-08-12T06:28:43.963Z,24.80
2022-08-12T06:30:57.378Z,24.90
2022-08-12T06:33:22.465Z,24.80
2022-08-12T06:35:49.380Z,24.90
2022-08-12T06:37:57.247Z,24.80
2022-08-12T06:40:03.602Z,24.80
2022-08-12T06:42:32.197Z,24.90
2022-08-12T06:44:35.004Z,25.00
2022-08-12T06:46:36.854Z,25.00
2022-08-12T06:48:42.650Z,25.00
2022-08-12T06:50:44.513Z,25.00
2022-08-12T06:52:46.649Z,25.10
2022-08-12T06:54:48.392Z,25.10
2022-08-12T06:58:07.396Z,25.20
2022-08-12T06:59:15.565Z,25.20
2022-08-12T07:01:18.469Z,25.10
2022-08-12T07:03:27.728Z,25.20
2022-08-12T07:05:29.692Z,25.20
2022-08-12T07:07:31.418Z,25.30
2022-08-12T07:10:03.764Z,25.30
2022-08-12T07:11:54.883Z,25.40
2022-08-12T07:14:12.727Z,25.30
2022-08-12T07:16:17.761Z,25.40
2022-08-12T07:18:20.076Z,25.40
2022-08-12T07:20:50.323Z,25.40
2022-08-12T07:22:44.545Z,25.50
2022-08-12T07:25:06.311Z,25.50
2022-08-12T07:27:08.203Z,25.50
2022-08-12T07:29:10.284Z,25.50
2022-08-12T07:31:12.331Z,25.60
2022-08-12T07:33:22.374Z,25.60
2022-08-12T07:35:24.199Z,25.60
2022-08-12T07:37:26.032Z,25.60
2022-08-12T07:39:29.591Z,25.70
2022-08-12T07:41:32.110Z,25.70
2022-08-12T07:43:39.134Z,25.80
2022-08-12T07:45:41.060Z,25.80
2022-08-12T07:47:43.378Z,25.90
2022-08-12T07:50:03.177Z,26.00
2022-08-12T07:52:06.956Z,26.10
2022-08-12T07:54:09.526Z,26.20
2022-08-12T07:56:11.566Z,26.40
2022-08-12T07:58:13.350Z,26.50
2022-08-12T08:00:15.758Z,26.60
2022-08-12T08:02:17.433Z,26.70
2022-08-12T08:04:37.984Z,26.80
2022-08-12T08:06:42.339Z,26.80
2022-08-12T08:08:44.214Z,26.90
2022-08-12T08:10:47.701Z,26.90
2022-08-12T08:12:56.183Z,27.00
2022-08-12T08:14:58.364Z,27.00
2022-08-12T08:17:03.339Z,27.10
2022-08-12T08:19:05.289Z,27.20
2022-08-12T08:21:08.920Z,27.30
2022-08-12T08:23:17.124Z,27.30
2022-08-12T08:25:35.984Z,27.30
2022-08-12T08:27:46.719Z,27.30
2022-08-12T08:29:48.966Z,27.40
2022-08-12T08:31:54.656Z,27.50
2022-08-12T08:34:05.227Z,27.50
2022-08-12T08:36:23.866Z,27.50
2022-08-12T08:38:34.713Z,27.50
2022-08-12T08:40:56.671Z,27.50
2022-08-12T08:42:58.222Z,27.60
2022-08-12T08:45:12.785Z,27.60
2022-08-12T08:47:14.479Z,27.70
2022-08-12T08:49:17.452Z,27.70
2022-08-12T08:51:19.100Z,27.70
2022-08-12T08:53:20.852Z,27.70
2022-08-12T08:55:33.422Z,27.80
2022-08-12T08:57:49.397Z,27.80
2022-08-12T08:59:51.866Z,27.80
2022-08-12T09:01:54.728Z,27.80
2022-08-12T09:06:20.741Z,27.90
2022-08-12T09:08:38.870Z,27.90
2022-08-12T09:10:45.154Z,27.90
2022-08-12T09:13:06.945Z,28.00
2022-08-12T09:15:16.738Z,28.00
2022-08-12T09:17:22.372Z,28.00
2022-08-12T09:21:54.638Z,28.10
2022-08-12T09:24:05.935Z,28.10
2022-08-12T09:26:09.990Z,28.10
2022-08-12T09:28:12.778Z,28.10
2022-08-12T09:30:16.522Z,28.10
2022-08-12T09:32:31.525Z,28.10
2022-08-12T09:34:42.226Z,28.10
2022-08-12T09:37:01.076Z,28.10
2022-08-12T09:40:00.948Z,28.20
2022-08-12T09:42:34.059Z,28.20
2022-08-12T09:44:06.641Z,28.20
2022-08-12T09:46:28.401Z,28.30
2022-08-12T09:48:35.139Z,28.30
2022-08-12T09:50:39.499Z,28.20
2022-08-12T09:52:41.164Z,28.30
2022-08-12T09:54:43.537Z,28.30
2022-08-12T09:57:00.739Z,28.30
2022-08-12T09:59:07.981Z,28.20
2022-08-12T10:01:15.498Z,28.30
2022-08-12T10:03:31.230Z,28.40
2022-08-12T10:06:20.462Z,28.30
2022-08-12T10:08:00.957Z,28.30
2022-08-12T10:10:04.693Z,28.30
2022-08-12T10:12:32.805Z,28.30
2022-08-12T10:14:36.949Z,28.30
2022-08-12T10:16:43.725Z,28.30
2022-08-12T10:18:52.848Z,28.30
2022-08-12T10:20:54.611Z,28.40
2022-08-12T10:23:01.520Z,28.40
2022-08-12T10:25:22.017Z,28.40
2022-08-12T10:28:03.892Z,28.40
2022-08-12T10:30:39.700Z,28.40
2022-08-12T10:32:44.431Z,28.50
2022-08-12T10:34:53.825Z,28.40
2022-08-12T10:37:22.546Z,28.50
2022-08-12T10:40:05.747Z,28.50
2022-08-12T10:42:04.200Z,28.50
2022-08-12T10:44:05.931Z,28.50
2022-08-12T10:46:13.822Z,28.50
2022-08-12T10:48:23.062Z,28.60
2022-08-12T10:50:58.463Z,28.50
2022-08-12T10:52:50.784Z,28.50
2022-08-12T10:54:55.825Z,28.60
2022-08-12T10:57:00.583Z,28.60
2022-08-12T10:59:05.007Z,28.60
2022-08-12T11:01:50.373Z,28.60
2022-08-12T11:04:24.522Z,28.60
2022-08-12T11:07:08.176Z,28.60
2022-08-12T11:08:37.037Z,28.70
2022-08-12T11:10:45.666Z,28.70
2022-08-12T11:12:58.273Z,28.70
2022-08-12T11:15:18.514Z,28.70
2022-08-12T11:17:43.562Z,28.70
2022-08-12T11:19:45.396Z,28.70
2022-08-12T11:21:57.612Z,28.70
2022-08-12T11:24:03.830Z,28.70
2022-08-12T11:26:07.669Z,28.70
2022-08-12T11:28:10.033Z,28.70
2022-08-12T11:30:31.668Z,28.80
2022-08-12T11:32:38.952Z,28.80
2022-08-12T11:34:52.923Z,28.80
2022-08-12T11:37:00.884Z,28.80
2022-08-12T11:39:06.668Z,28.80
2022-08-12T11:41:08.359Z,28.80
2022-08-12T11:43:19.855Z,28.80
2022-08-12T11:45:22.217Z,28.80
2022-08-12T11:47:25.003Z,28.90
2022-08-12T11:49:31.242Z,28.90
2022-08-12T11:51:36.511Z,28.80
2022-08-12T11:53:58.528Z,28.90
2022-08-12T11:56:02.327Z,28.90
2022-08-12T11:58:14.566Z,28.80
2022-08-12T12:02:48.113Z,28.90
2022-08-12T12:04:52.630Z,29.00
2022-08-12T12:06:55.440Z,28.90
2022-08-12T12:08:57.147Z,28.90
2022-08-12T12:11:02.397Z,29.00
2022-08-12T12:13:11.742Z,29.00
2022-08-12T12:15:40.941Z,29.00
2022-08-12T12:17:43.146Z,29.10
2022-08-12T12:19:46.238Z,29.10
2022-08-12T12:21:49.562Z,29.00
2022-08-12T12:23:51.584Z,29.00
2022-08-12T12:25:59.362Z,29.00
2022-08-12T12:28:09.340Z,29.10
2022-08-12T12:30:31.130Z,29.00
2022-08-12T12:32:32.878Z,29.10
2022-08-12T12:34:34.580Z,29.00
2022-08-12T12:36:38.542Z,29.10
2022-08-12T12:38:40.270Z,29.10
2022-08-12T12:40:45.018Z,29.10
2022-08-12T12:42:55.522Z,29.00
2022-08-12T12:44:59.818Z,29.00
2022-08-12T12:47:01.509Z,29.10
2022-08-12T12:49:10.870Z,29.10
2022-08-12T12:51:48.849Z,29.10
2022-08-12T12:54:08.035Z,29.10
2022-08-12T12:56:01.954Z,29.10
2022-08-12T12:58:11.170Z,29.10
2022-08-12T13:00:17.640Z,29.20
2022-08-12T13:02:31.760Z,29.30
2022-08-12T13:04:34.982Z,29.30
2022-08-12T13:06:37.042Z,29.30
2022-08-12T13:08:39.083Z,29.40
2022-08-12T13:10:50.323Z,29.40
2022-08-12T13:12:54.418Z,29.40
2022-08-12T13:14:56.193Z,29.50
2022-08-12T13:17:03.564Z,29.50
2022-08-12T13:19:07.934Z,29.50
2022-08-12T13:21:15.783Z,29.40
2022-08-12T13:23:36.436Z,29.50
2022-08-12T13:25:41.531Z,29.50
2022-08-12T13:27:50.813Z,29.50
2022-08-12T13:29:54.373Z,29.40
2022-08-12T13:32:19.636Z,29.50
2022-08-12T13:34:33.387Z,29.40
2022-08-12T13:36:37.184Z,29.50
2022-08-12T13:38:42.627Z,29.40
2022-08-12T13:40:46.244Z,29.40
2022-08-12T13:42:48.767Z,29.50
2022-08-12T13:44:53.817Z,29.50
2022-08-12T13:46:58.845Z,29.50
2022-08-12T13:49:04.913Z,29.50
2022-08-12T13:51:06.640Z,29.50
2022-08-12T13:53:23.985Z,29.50
2022-08-12T13:55:31.324Z,29.60
2022-08-12T13:57:44.722Z,29.50
2022-08-12T13:59:55.656Z,29.60
2022-08-12T14:02:02.248Z,29.60
2022-08-12T14:04:04.371Z,29.60
2022-08-12T14:06:06.391Z,29.70
2022-08-12T14:08:21.164Z,29.60
2022-08-12T14:10:51.088Z,29.70
2022-08-12T14:12:54.815Z,29.70
2022-08-12T14:14:57.855Z,29.70
2022-08-12T14:17:05.482Z,29.60
2022-08-12T14:19:21.763Z,29.60
2022-08-12T14:21:28.727Z,29.70
2022-08-12T14:24:06.210Z,29.60
2022-08-12T14:25:58.824Z,29.70
2022-08-12T14:28:10.323Z,29.70
2022-08-12T14:30:15.501Z,29.70
2022-08-12T14:32:25.525Z,29.70
2022-08-12T14:34:28.287Z,29.70
2022-08-12T14:36:30.192Z,29.70
2022-08-12T14:38:39.479Z,29.80
2022-08-12T14:40:41.216Z,29.70
2022-08-12T14:42:42.881Z,29.70
2022-08-12T14:44:59.217Z,29.80
2022-08-12T14:47:07.613Z,29.70
2022-08-12T14:50:01.720Z,29.80
2022-08-12T14:52:57.664Z,29.80
2022-08-12T14:56:03.382Z,29.80
2022-08-12T14:59:23.484Z,29.80
2022-08-12T15:01:44.602Z,29.80
2022-08-12T15:03:56.845Z,29.80
2022-08-12T15:06:44.300Z,29.80
2022-08-12T15:08:35.400Z,29.80
2022-08-12T15:10:38.099Z,29.90
2022-08-12T15:12:40.691Z,29.80
2022-08-12T15:14:42.887Z,29.80
2022-08-12T15:16:48.477Z,29.80
2022-08-12T15:18:54.954Z,29.80
2022-08-12T15:21:04.355Z,29.80
2022-08-12T15:23:17.340Z,29.90
2022-08-12T15:25:19.885Z,29.80
2022-08-12T15:27:22.517Z,29.80
2022-08-12T15:29:33.592Z,29.80
2022-08-12T15:32:00.631Z,29.80
2022-08-12T15:33:57.450Z,29.80
2022-08-12T15:36:02.645Z,29.90
2022-08-12T15:38:13.723Z,29.90
2022-08-12T15:40:30.338Z,29.90
2022-08-12T15:42:32.352Z,29.90
2022-08-12T15:44:37.941Z,29.80
2022-08-12T15:46:43.310Z,29.90
2022-08-12T15:48:46.953Z,29.90
2022-08-12T15:50:53.150Z,29.90
2022-08-12T15:52:58.110Z,29.90
2022-08-12T15:55:18.118Z,29.90
2022-08-12T15:57:24.534Z,30.00
2022-08-12T15:59:51.959Z,30.10
2022-08-12T16:01:50.482Z,30.20
2022-08-12T16:03:59.964Z,30.10
2022-08-12T16:06:19.531Z,30.10
2022-08-12T16:08:27.577Z,30.20
2022-08-12T16:10:31.037Z,30.10
2022-08-12T16:12:39.398Z,30.10
2022-08-12T16:14:41.102Z,30.10
2022-08-12T16:16:42.949Z,30.10
2022-08-12T16:18:44.881Z,30.10
2022-08-12T16:20:47.352Z,30.10
2022-08-12T16:22:53.776Z,30.10
2022-08-12T16:24:56.219Z,30.10
2022-08-12T16:26:57.984Z,30.10
2022-08-12T16:29:14.784Z,30.10
2022-08-12T16:31:23.391Z,30.00
2022-08-12T16:33:35.902Z,30.00
2022-08-12T16:35:57.447Z,30.00
2022-08-12T16:38:24.767Z,30.00
2022-08-12T16:40:20.839Z,29.90
2022-08-12T16:42:28.050Z,29.80
2022-08-12T16:44:32.980Z,29.90
2022-08-12T16:46:37.670Z,29.80
2022-08-12T16:48:39.600Z,29.80
2022-08-12T16:50:41.307Z,29.80
2022-08-12T16:52:51.388Z,29.80
2022-08-12T16:54:53.095Z,29.80
2022-08-12T16:56:57.746Z,29.80
2022-08-12T16:59:00.061Z,29.80
2022-08-12T17:01:02.203Z,29.80
2022-08-12T17:03:04.769Z,29.80
2022-08-12T17:05:07.575Z,29.90
2022-08-12T17:07:19.576Z,29.80
2022-08-12T17:09:21.871Z,29.90
2022-08-12T17:11:24.807Z,29.80
2022-08-12T17:13:33.823Z,29.80
2022-08-12T17:15:57.233Z,29.80
2022-08-12T17:18:42.332Z,29.80
2022-08-12T17:20:35.113Z,29.80
2022-08-12T17:22:41.805Z,29.80
2022-08-12T17:24:55.582Z,29.80
2022-08-12T17:27:09.484Z,29.80
2022-08-12T17:29:24.138Z,29.70
2022-08-12T17:32:00.424Z,29.80
2022-08-12T17:34:17.230Z,29.80
2022-08-12T17:36:19.461Z,29.80
2022-08-12T17:38:22.791Z,29.80
2022-08-12T17:40:36.178Z,29.80
2022-08-12T17:42:40.540Z,29.80
2022-08-12T17:44:43.493Z,29.80
2022-08-12T17:46:53.586Z,29.80
2022-08-12T17:48:57.939Z,29.80
2022-08-12T17:51:02.633Z,29.80
2022-08-12T17:53:04.523Z,29.70
2022-08-12T17:55:16.617Z,29.70
2022-08-12T17:57:30.515Z,29.80
2022-08-12T17:59:48.295Z,29.70
2022-08-12T18:01:51.002Z,29.70
2022-08-12T18:04:13.809Z,29.70
2022-08-12T18:06:15.672Z,29.70
2022-08-12T18:08:18.497Z,29.70
2022-08-12T18:10:43.965Z,29.70
2022-08-12T18:12:55.430Z,29.60
2022-08-12T18:15:02.225Z,29.60
2022-08-12T18:17:05.683Z,29.60
2022-08-12T18:19:11.208Z,29.60
2022-08-12T18:21:15.168Z,29.60
2022-08-12T18:23:25.016Z,29.50
2022-08-12T18:26:16.632Z,29.50
2022-08-12T18:28:16.901Z,29.50
2022-08-12T18:30:31.743Z,29.40
2022-08-12T18:32:58.924Z,29.30
2022-08-12T18:34:58.358Z,29.20
2022-08-12T18:37:41.220Z,29.10
2022-08-12T18:39:55.492Z,28.90
2022-08-12T18:41:58.378Z,28.90
2022-08-12T18:44:06.094Z,29.00
2022-08-12T18:46:13.231Z,28.80
2022-08-12T18:48:16.554Z,28.80
2022-08-12T18:50:18.234Z,28.80
2022-08-12T18:52:20.393Z,28.70
2022-08-12T18:54:27.750Z,28.70
2022-08-12T18:56:36.656Z,28.80
2022-08-12T18:58:59.424Z,28.70
2022-08-12T19:01:02.777Z,28.60
2022-08-12T19:03:09.253Z,28.70
2022-08-12T19:05:53.381Z,28.70
2022-08-12T19:08:00.820Z,28.60
2022-08-12T19:10:04.540Z,28.50
2022-08-12T19:12:30.353Z,28.40
2022-08-12T19:14:38.099Z,28.40
2022-08-12T19:16:40.296Z,28.30
2022-08-12T19:18:44.990Z,28.30
2022-08-12T19:20:48.045Z,28.30
2022-08-12T19:23:00.007Z,28.20
2022-08-12T19:25:59.768Z,28.20
2022-08-12T19:27:51.054Z,28.30
2022-08-12T19:30:05.930Z,28.30
2022-08-12T19:32:12.005Z,28.20
2022-08-12T19:34:47.095Z,28.40
2022-08-12T19:36:45.736Z,28.20
2022-08-12T19:38:56.827Z,28.20
2022-08-12T19:40:59.014Z,28.10
2022-08-12T19:43:20.395Z,28.00
2022-08-12T19:45:22.749Z,28.00
2022-08-12T19:47:24.554Z,27.80
2022-08-12T19:49:27.098Z,27.80
2022-08-12T19:51:40.608Z,27.80
2022-08-12T19:53:57.623Z,27.80
2022-08-12T19:56:00.232Z,27.70
2022-08-12T19:58:03.631Z,27.60
2022-08-12T20:00:07.721Z,27.60
2022-08-12T20:02:12.939Z,27.50
2022-08-12T20:04:18.689Z,27.50
2022-08-12T20:06:24.433Z,27.40
2022-08-12T20:08:34.379Z,27.40
2022-08-12T20:10:47.555Z,27.40
2022-08-12T20:13:17.458Z,27.40
2022-08-12T20:15:15.239Z,27.30
2022-08-12T20:17:23.669Z,27.30
2022-08-12T20:20:04.064Z,27.30
2022-08-12T20:22:11.725Z,27.30
2022-08-12T20:24:16.347Z,27.30
2022-08-12T20:26:20.887Z,27.20
2022-08-12T20:28:23.817Z,27.20
2022-08-12T20:30:53.675Z,27.30
2022-08-12T20:33:01.428Z,27.30
2022-08-12T20:35:03.091Z,27.20
2022-08-12T20:37:13.305Z,27.10
2022-08-12T20:39:34.247Z,27.10
2022-08-12T20:41:38.621Z,27.10
2022-08-12T20:43:42.120Z,27.10
2022-08-12T20:45:51.074Z,27.10
2022-08-12T20:48:04.622Z,27.00
2022-08-12T20:50:09.851Z,27.00
2022-08-12T20:52:15.193Z,27.00
2022-08-12T20:54:21.123Z,27.00
2022-08-12T20:56:30.289Z,26.90
2022-08-12T20:58:33.010Z,26.90
2022-08-12T21:00:34.828Z,26.80
2022-08-12T21:02:36.558Z,26.90
2022-08-12T21:04:57.031Z,26.80
2022-08-12T21:07:09.145Z,26.80
2022-08-12T21:09:11.703Z,26.70
2022-08-12T21:11:13.452Z,26.80
2022-08-12T21:13:20.208Z,26.80
2022-08-12T21:15:30.251Z,26.70
2022-08-12T21:18:00.438Z,26.80
2022-08-12T21:19:56.521Z,26.70
2022-08-12T21:22:01.386Z,26.60
2022-08-12T21:24:06.070Z,26.50
2022-08-12T21:26:16.410Z,26.50
2022-08-12T21:28:20.655Z,26.50
2022-08-12T21:30:22.793Z,26.50
2022-08-12T21:32:39.536Z,26.50
2022-08-12T21:34:42.984Z,26.40
2022-08-12T21:36:50.342Z,26.60
2022-08-12T21:38:59.349Z,26.50
2022-08-12T21:41:01.121Z,26.50
2022-08-12T21:43:09.736Z,26.50
2022-08-12T21:45:47.858Z,26.30
2022-08-12T21:47:37.092Z,26.20
2022-08-12T21:49:54.796Z,26.20
2022-08-12T21:51:58.420Z,26.10
2022-08-12T21:54:06.840Z,26.10
2022-08-12T21:56:10.725Z,26.00
2022-08-12T21:58:32.527Z,26.10
2022-08-12T22:00:35.056Z,26.10
2022-08-12T22:02:55.500Z,26.00
2022-08-12T22:05:17.553Z,26.00
2022-08-12T22:07:26.753Z,26.00
2022-08-12T22:09:43.419Z,25.90
2022-08-12T22:11:49.300Z,25.80
2022-08-12T22:14:04.217Z,25.80
2022-08-12T22:16:10.208Z,25.70
2022-08-12T22:18:13.260Z,25.80
2022-08-12T22:20:18.096Z,25.70
2022-08-12T22:22:23.780Z,25.80
2022-08-12T22:24:34.890Z,25.80
2022-08-12T22:26:38.150Z,25.80
2022-08-12T22:29:04.176Z,25.80
2022-08-12T22:31:11.915Z,25.80
2022-08-12T22:33:19.095Z,25.70
2022-08-12T22:35:47.306Z,25.60
2022-08-12T22:37:55.911Z,25.60
2022-08-12T22:39:57.673Z,25.50
2022-08-12T22:42:20.031Z,25.50
2022-08-12T22:44:52.603Z,25.50
2022-08-12T22:47:15.575Z,25.60
2022-08-12T22:49:53.628Z,25.60
2022-08-12T22:52:07.005Z,25.50
2022-08-12T22:54:35.674Z,25.60
2022-08-12T22:56:31.949Z,25.50
2022-08-12T22:58:40.147Z,25.50
2022-08-12T23:00:46.454Z,25.50
2022-08-12T23:02:48.165Z,25.50
2022-08-12T23:04:52.599Z,25.50
2022-08-12T23:07:05.164Z,25.50
2022-08-12T23:09:07.312Z,25.50
2022-08-12T23:11:09.467Z,25.40
2022-08-12T23:13:42.885Z,25.30
2022-08-12T23:15:47.778Z,25.30
2022-08-12T23:17:57.711Z,25.20
2022-08-12T23:20:01.442Z,25.10
2022-08-12T23:22:36.281Z,25.10
2022-08-12T23:24:30.672Z,25.20
2022-08-12T23:26:51.248Z,25.20
2022-08-12T23:29:25.709Z,25.10
2022-08-12T23:32:03.045Z,25.20
2022-08-12T23:34:00.219Z,25.20
2022-08-12T23:36:04.907Z,25.10
2022-08-12T23:38:09.046Z,25.20
2022-08-12T23:40:17.946Z,25.10
2022-08-12T23:42:21.419Z,25.10
2022-08-12T23:44:35.871Z,25.10
2022-08-12T23:46:38.576Z,25.10
2022-08-12T23:48:47.964Z,25.10
2022-08-12T23:50:52.223Z,25.00
2022-08-12T23:52:56.298Z,25.00
2022-08-12T23:55:06.977Z,25.00
2022-08-12T23:57:20.900Z,24.90
2022-08-12T23:59:29.585Z,24.80
